sensor_id;sensor_type;location;lat;lon;timestamp;pressure;altitude;pressure_sealevel;temperature;humidity
62952;BME280;52163;52.212;-1.002;2022-11-03T00:02:17;99367.98;;;11.08;90.03
62952;BME280;52163;52.212;-1.002;2022-11-03T00:04:42;99370.04;;;11.09;90.04
62952;BME280;52163;52.212;-1.002;2022-11-03T00:07:08;99377.64;;;11.09;90.11
62952;BME280;52163;52.212;-1.002;2022-11-03T00:09:33;99369.95;;;11.08;89.94
62952;BME280;52163;52.212;-1.002;2022-11-03T00:11:59;99364.21;;;11.06;90.04
62952;BME280;52163;52.212;-1.002;2022-11-03T00:14:26;99356.34;;;11.06;89.94
62952;BME280;52163;52.212;-1.002;2022-11-03T00:16:52;99359.67;;;11.06;90.15
62952;BME280;52163;52.212;-1.002;2022-11-03T00:19:18;99356.06;;;11.07;90.11
62952;BME280;52163;52.212;-1.002;2022-11-03T00:21:44;99349.98;;;11.07;90.13
62952;BME280;52163;52.212;-1.002;2022-11-03T00:24:10;99350.79;;;11.09;90.14
62952;BME280;52163;52.212;-1.002;2022-11-03T00:26:36;99343.22;;;11.08;90.26
62952;BME280;52163;52.212;-1.002;2022-11-03T00:29:12;99346.00;;;11.07;90.23
62952;BME280;52163;52.212;-1.002;2022-11-03T00:31:41;99341.27;;;11.06;90.14
62952;BME280;52163;52.212;-1.002;2022-11-03T00:34:08;99338.61;;;11.06;90.13
62952;BME280;52163;52.212;-1.002;2022-11-03T00:36:42;99338.91;;;11.07;90.34
62952;BME280;52163;52.212;-1.002;2022-11-03T00:39:08;99343.55;;;11.08;90.22
62952;BME280;52163;52.212;-1.002;2022-11-03T00:41:35;99331.85;;;11.09;90.09
62952;BME280;52163;52.212;-1.002;2022-11-03T00:44:00;99336.77;;;11.09;90.28
62952;BME280;52163;52.212;-1.002;2022-11-03T00:46:26;99334.38;;;11.08;90.23
62952;BME280;52163;52.212;-1.002;2022-11-03T00:48:53;99331.00;;;11.06;90.20
62952;BME280;52163;52.212;-1.002;2022-11-03T00:51:27;99332.96;;;11.03;90.01
62952;BME280;52163;52.212;-1.002;2022-11-03T00:54:00;99326.13;;;11.03;90.12
62952;BME280;52163;52.212;-1.002;2022-11-03T00:56:28;99322.61;;;11.03;90.17
62952;BME280;52163;52.212;-1.002;2022-11-03T00:58:55;99325.19;;;11.03;90.13
62952;BME280;52163;52.212;-1.002;2022-11-03T01:01:24;99324.61;;;11.04;90.20
62952;BME280;52163;52.212;-1.002;2022-11-03T01:03:52;99323.66;;;11.05;90.23
62952;BME280;52163;52.212;-1.002;2022-11-03T01:06:40;99324.86;;;11.06;90.11
62952;BME280;52163;52.212;-1.002;2022-11-03T01:09:22;99321.59;;;11.04;90.22
62952;BME280;52163;52.212;-1.002;2022-11-03T01:12:01;99321.59;;;11.04;90.31
62952;BME280;52163;52.212;-1.002;2022-11-03T01:14:42;99318.58;;;11.04;90.46
62952;BME280;52163;52.212;-1.002;2022-11-03T01:17:11;99319.61;;;11.07;90.36
62952;BME280;52163;52.212;-1.002;2022-11-03T01:19:37;99317.85;;;11.09;90.52
62952;BME280;52163;52.212;-1.002;2022-11-03T01:22:02;99316.50;;;11.11;90.54
62952;BME280;52163;52.212;-1.002;2022-11-03T01:24:28;99322.11;;;11.11;90.53
62952;BME280;52163;52.212;-1.002;2022-11-03T01:26:53;99320.91;;;11.11;90.29
62952;BME280;52163;52.212;-1.002;2022-11-03T01:29:19;99316.08;;;11.12;90.36
62952;BME280;52163;52.212;-1.002;2022-11-03T01:31:44;99312.73;;;11.14;90.58
62952;BME280;52163;52.212;-1.002;2022-11-03T01:34:14;99311.63;;;11.16;90.50
62952;BME280;52163;52.212;-1.002;2022-11-03T01:36:41;99310.83;;;11.17;90.40
62952;BME280;52163;52.212;-1.002;2022-11-03T01:39:12;99309.25;;;11.19;90.48
62952;BME280;52163;52.212;-1.002;2022-11-03T01:41:38;99311.20;;;11.22;90.67
62952;BME280;52163;52.212;-1.002;2022-11-03T01:46:47;99316.45;;;11.22;90.07
62952;BME280;52163;52.212;-1.002;2022-11-03T01:51:43;99327.21;;;11.27;90.07
62952;BME280;52163;52.212;-1.002;2022-11-03T01:54:12;99332.06;;;11.28;89.80
62952;BME280;52163;52.212;-1.002;2022-11-03T01:56:42;99333.58;;;11.31;89.96
62952;BME280;52163;52.212;-1.002;2022-11-03T01:59:12;99331.34;;;11.35;89.90
62952;BME280;52163;52.212;-1.002;2022-11-03T02:01:39;99328.75;;;11.39;90.05
62952;BME280;52163;52.212;-1.002;2022-11-03T02:04:16;99321.34;;;11.43;89.68
62952;BME280;52163;52.212;-1.002;2022-11-03T02:06:43;99330.50;;;11.43;89.19
62952;BME280;52163;52.212;-1.002;2022-11-03T02:09:09;99328.95;;;11.45;89.18
62952;BME280;52163;52.212;-1.002;2022-11-03T02:11:36;99327.13;;;11.47;89.30
62952;BME280;52163;52.212;-1.002;2022-11-03T02:14:20;99322.48;;;11.56;89.51
62952;BME280;52163;52.212;-1.002;2022-11-03T02:16:52;99319.15;;;11.63;89.37
62952;BME280;52163;52.212;-1.002;2022-11-03T02:19:31;99317.11;;;11.68;88.98
62952;BME280;52163;52.212;-1.002;2022-11-03T02:27:32;99293.89;;;11.58;87.74
62952;BME280;52163;52.212;-1.002;2022-11-03T02:29:58;99284.37;;;11.53;87.95
62952;BME280;52163;52.212;-1.002;2022-11-03T02:32:28;99289.06;;;11.50;88.22
62952;BME280;52163;52.212;-1.002;2022-11-03T02:37:55;99279.97;;;11.47;88.56
62952;BME280;52163;52.212;-1.002;2022-11-03T02:40:27;99282.95;;;11.43;88.85
62952;BME280;52163;52.212;-1.002;2022-11-03T02:42:55;99274.27;;;11.41;89.16
62952;BME280;52163;52.212;-1.002;2022-11-03T02:45:22;99270.23;;;11.39;89.11
62952;BME280;52163;52.212;-1.002;2022-11-03T02:47:50;99258.73;;;11.34;89.14
62952;BME280;52163;52.212;-1.002;2022-11-03T02:50:17;99258.13;;;11.31;89.37
62952;BME280;52163;52.212;-1.002;2022-11-03T02:52:47;99258.42;;;11.29;89.64
62952;BME280;52163;52.212;-1.002;2022-11-03T02:58:41;99254.91;;;11.23;89.90
62952;BME280;52163;52.212;-1.002;2022-11-03T03:01:35;99248.83;;;11.19;89.86
62952;BME280;52163;52.212;-1.002;2022-11-03T03:04:15;99245.46;;;11.15;89.92
62952;BME280;52163;52.212;-1.002;2022-11-03T03:06:50;99244.11;;;11.10;89.96
62952;BME280;52163;52.212;-1.002;2022-11-03T03:09:20;99237.64;;;11.05;89.92
62952;BME280;52163;52.212;-1.002;2022-11-03T03:11:50;99241.92;;;11.00;89.91
62952;BME280;52163;52.212;-1.002;2022-11-03T03:14:37;99237.76;;;10.97;90.05
62952;BME280;52163;52.212;-1.002;2022-11-03T03:17:08;99235.71;;;10.92;89.76
62952;BME280;52163;52.212;-1.002;2022-11-03T03:19:56;99226.11;;;10.86;89.64
62952;BME280;52163;52.212;-1.002;2022-11-03T03:22:28;99217.77;;;10.82;89.73
62952;BME280;52163;52.212;-1.002;2022-11-03T03:27:38;99157.76;;;10.77;89.80
62952;BME280;52163;52.212;-1.002;2022-11-03T03:30:07;99130.91;;;10.75;89.64
62952;BME280;52163;52.212;-1.002;2022-11-03T03:32:38;99124.35;;;10.73;89.83
62952;BME280;52163;52.212;-1.002;2022-11-03T03:35:07;99124.86;;;10.71;89.94
62952;BME280;52163;52.212;-1.002;2022-11-03T03:37:36;99155.54;;;10.68;89.68
62952;BME280;52163;52.212;-1.002;2022-11-03T03:40:08;99156.75;;;10.57;89.36
62952;BME280;52163;52.212;-1.002;2022-11-03T03:42:36;99155.67;;;10.51;89.97
62952;BME280;52163;52.212;-1.002;2022-11-03T03:45:03;99164.95;;;10.47;90.21
62952;BME280;52163;52.212;-1.002;2022-11-03T03:47:31;99161.21;;;10.43;90.40
62952;BME280;52163;52.212;-1.002;2022-11-03T03:49:59;99161.19;;;10.41;90.75
62952;BME280;52163;52.212;-1.002;2022-11-03T03:52:26;99162.93;;;10.37;90.52
62952;BME280;52163;52.212;-1.002;2022-11-03T03:54:53;99169.10;;;10.32;90.64
62952;BME280;52163;52.212;-1.002;2022-11-03T03:57:22;99166.92;;;10.31;91.01
62952;BME280;52163;52.212;-1.002;2022-11-03T03:59:48;99166.38;;;10.33;91.46
62952;BME280;52163;52.212;-1.002;2022-11-03T04:02:13;99165.86;;;10.38;91.53
62952;BME280;52163;52.212;-1.002;2022-11-03T04:04:39;99164.97;;;10.40;91.36
62952;BME280;52163;52.212;-1.002;2022-11-03T04:07:05;99158.44;;;10.40;91.32
62952;BME280;52163;52.212;-1.002;2022-11-03T04:09:49;99149.29;;;10.40;91.36
62952;BME280;52163;52.212;-1.002;2022-11-03T04:12:15;99144.86;;;10.38;91.07
62952;BME280;52163;52.212;-1.002;2022-11-03T04:14:59;99132.66;;;10.33;90.89
62952;BME280;52163;52.212;-1.002;2022-11-03T04:17:45;99118.52;;;10.31;90.93
62952;BME280;52163;52.212;-1.002;2022-11-03T04:20:31;99112.48;;;10.32;91.58
62952;BME280;52163;52.212;-1.002;2022-11-03T04:23:15;99107.31;;;10.35;91.68
62952;BME280;52163;52.212;-1.002;2022-11-03T04:25:45;99110.61;;;10.35;91.22
62952;BME280;52163;52.212;-1.002;2022-11-03T04:28:13;99112.21;;;10.33;91.18
62952;BME280;52163;52.212;-1.002;2022-11-03T04:30:40;99119.61;;;10.31;91.17
62952;BME280;52163;52.212;-1.002;2022-11-03T04:33:17;99117.69;;;10.26;91.07
62952;BME280;52163;52.212;-1.002;2022-11-03T04:35:44;99112.86;;;10.25;91.39
62952;BME280;52163;52.212;-1.002;2022-11-03T04:40:49;99115.50;;;10.29;91.93
62952;BME280;52163;52.212;-1.002;2022-11-03T04:43:17;99119.76;;;10.33;91.70
62952;BME280;52163;52.212;-1.002;2022-11-03T04:45:47;99119.10;;;10.35;91.62
62952;BME280;52163;52.212;-1.002;2022-11-03T04:48:24;99113.63;;;10.37;91.53
62952;BME280;52163;52.212;-1.002;2022-11-03T04:50:54;99109.65;;;10.39;91.29
62952;BME280;52163;52.212;-1.002;2022-11-03T04:53:23;99104.00;;;10.39;91.05
62952;BME280;52163;52.212;-1.002;2022-11-03T04:55:53;99102.23;;;10.39;90.78
62952;BME280;52163;52.212;-1.002;2022-11-03T04:58:23;99101.83;;;10.37;90.68
62952;BME280;52163;52.212;-1.002;2022-11-03T05:00:56;99097.28;;;10.37;91.26
62952;BME280;52163;52.212;-1.002;2022-11-03T05:03:24;99100.84;;;10.38;91.14
62952;BME280;52163;52.212;-1.002;2022-11-03T05:05:52;99099.80;;;10.38;90.82
62952;BME280;52163;52.212;-1.002;2022-11-03T05:08:18;99101.04;;;10.38;90.86
62952;BME280;52163;52.212;-1.002;2022-11-03T05:10:45;99097.86;;;10.36;90.64
62952;BME280;52163;52.212;-1.002;2022-11-03T05:13:20;99100.67;;;10.34;90.69
62952;BME280;52163;52.212;-1.002;2022-11-03T05:15:49;99101.50;;;10.32;90.54
62952;BME280;52163;52.212;-1.002;2022-11-03T05:18:28;99099.96;;;10.32;90.90
62952;BME280;52163;52.212;-1.002;2022-11-03T05:21:03;99099.70;;;10.33;91.05
62952;BME280;52163;52.212;-1.002;2022-11-03T05:23:55;99097.84;;;10.34;91.00
62952;BME280;52163;52.212;-1.002;2022-11-03T05:26:28;99094.77;;;10.35;90.83
62952;BME280;52163;52.212;-1.002;2022-11-03T05:29:03;99092.58;;;10.31;90.52
62952;BME280;52163;52.212;-1.002;2022-11-03T05:31:34;99089.77;;;10.27;90.62
62952;BME280;52163;52.212;-1.002;2022-11-03T05:34:20;99091.08;;;10.22;90.56
62952;BME280;52163;52.212;-1.002;2022-11-03T05:36:47;99083.75;;;10.19;91.17
62952;BME280;52163;52.212;-1.002;2022-11-03T05:39:31;99084.27;;;10.16;91.12
62952;BME280;52163;52.212;-1.002;2022-11-03T05:41:58;99077.77;;;10.21;92.03
62952;BME280;52163;52.212;-1.002;2022-11-03T05:44:31;99073.73;;;10.20;91.53
62952;BME280;52163;52.212;-1.002;2022-11-03T05:46:59;99067.61;;;10.17;91.26
62952;BME280;52163;52.212;-1.002;2022-11-03T05:49:26;99070.29;;;10.12;91.51
62952;BME280;52163;52.212;-1.002;2022-11-03T05:51:53;99062.98;;;10.09;91.52
62952;BME280;52163;52.212;-1.002;2022-11-03T05:54:24;99063.14;;;10.05;91.57
62952;BME280;52163;52.212;-1.002;2022-11-03T05:56:51;99061.82;;;10.03;91.96
62952;BME280;52163;52.212;-1.002;2022-11-03T05:59:21;99058.88;;;10.05;92.52
62952;BME280;52163;52.212;-1.002;2022-11-03T06:01:47;99054.65;;;10.05;92.41
62952;BME280;52163;52.212;-1.002;2022-11-03T06:06:51;99047.38;;;10.10;93.04
62952;BME280;52163;52.212;-1.002;2022-11-03T06:09:21;99041.63;;;10.15;93.12
62952;BME280;52163;52.212;-1.002;2022-11-03T06:11:48;99034.05;;;10.20;93.06
62952;BME280;52163;52.212;-1.002;2022-11-03T06:14:21;99031.41;;;10.22;92.50
62952;BME280;52163;52.212;-1.002;2022-11-03T06:16:49;99023.89;;;10.21;92.07
62952;BME280;52163;52.212;-1.002;2022-11-03T06:19:33;99019.81;;;10.19;91.91
62952;BME280;52163;52.212;-1.002;2022-11-03T06:22:22;99017.35;;;10.19;91.90
62952;BME280;52163;52.212;-1.002;2022-11-03T06:24:50;99015.23;;;10.14;91.94
62952;BME280;52163;52.212;-1.002;2022-11-03T06:27:21;99010.27;;;10.13;92.20
62952;BME280;52163;52.212;-1.002;2022-11-03T06:29:55;99009.38;;;10.13;92.70
62952;BME280;52163;52.212;-1.002;2022-11-03T06:32:21;99011.11;;;10.13;92.75
62952;BME280;52163;52.212;-1.002;2022-11-03T06:34:57;99008.41;;;10.14;92.35
62952;BME280;52163;52.212;-1.002;2022-11-03T06:37:30;99010.51;;;10.12;92.40
62952;BME280;52163;52.212;-1.002;2022-11-03T06:39:59;99007.77;;;10.07;91.50
62952;BME280;52163;52.212;-1.002;2022-11-03T06:42:28;99006.69;;;10.07;92.44
62952;BME280;52163;52.212;-1.002;2022-11-03T06:44:56;99003.58;;;10.04;92.16
62952;BME280;52163;52.212;-1.002;2022-11-03T06:47:26;99002.16;;;9.97;91.95
62952;BME280;52163;52.212;-1.002;2022-11-03T06:49:59;98999.91;;;9.95;92.70
62952;BME280;52163;52.212;-1.002;2022-11-03T06:52:34;99000.02;;;9.94;92.44
62952;BME280;52163;52.212;-1.002;2022-11-03T06:57:41;98990.91;;;9.91;92.73
62952;BME280;52163;52.212;-1.002;2022-11-03T07:03:01;98987.09;;;9.90;92.89
62952;BME280;52163;52.212;-1.002;2022-11-03T07:05:31;98991.12;;;9.93;93.27
62952;BME280;52163;52.212;-1.002;2022-11-03T07:08:32;98984.73;;;9.91;92.98
62952;BME280;52163;52.212;-1.002;2022-11-03T07:11:19;98981.14;;;9.92;93.38
62952;BME280;52163;52.212;-1.002;2022-11-03T07:13:51;98980.20;;;9.92;93.19
62952;BME280;52163;52.212;-1.002;2022-11-03T07:16:30;98982.08;;;9.88;93.02
62952;BME280;52163;52.212;-1.002;2022-11-03T07:18:58;98982.47;;;9.88;93.18
62952;BME280;52163;52.212;-1.002;2022-11-03T07:23:57;98977.02;;;9.87;93.50
62952;BME280;52163;52.212;-1.002;2022-11-03T07:26:25;98972.67;;;9.85;93.41
62952;BME280;52163;52.212;-1.002;2022-11-03T07:28:50;98975.25;;;9.81;93.62
62952;BME280;52163;52.212;-1.002;2022-11-03T07:31:19;98979.67;;;9.81;94.17
62952;BME280;52163;52.212;-1.002;2022-11-03T07:33:46;98981.63;;;9.81;94.13
62952;BME280;52163;52.212;-1.002;2022-11-03T07:36:18;98987.02;;;9.84;94.44
62952;BME280;52163;52.212;-1.002;2022-11-03T07:38:45;98983.79;;;9.87;94.18
62952;BME280;52163;52.212;-1.002;2022-11-03T07:41:18;98981.23;;;9.93;95.12
62952;BME280;52163;52.212;-1.002;2022-11-03T07:43:52;98978.87;;;10.00;95.17
62952;BME280;52163;52.212;-1.002;2022-11-03T07:46:20;98977.24;;;10.07;95.44
62952;BME280;52163;52.212;-1.002;2022-11-03T07:48:48;98972.45;;;10.13;95.23
62952;BME280;52163;52.212;-1.002;2022-11-03T08:01:39;98964.16;;;10.41;94.19
62952;BME280;52163;52.212;-1.002;2022-11-03T08:04:09;98971.39;;;10.48;93.79
62952;BME280;52163;52.212;-1.002;2022-11-03T08:06:34;98975.05;;;10.55;93.95
62952;BME280;52163;52.212;-1.002;2022-11-03T08:09:00;98976.27;;;10.57;93.34
62952;BME280;52163;52.212;-1.002;2022-11-03T08:11:26;98973.64;;;10.59;93.16
62952;BME280;52163;52.212;-1.002;2022-11-03T08:13:52;98978.93;;;10.59;92.79
62952;BME280;52163;52.212;-1.002;2022-11-03T08:16:18;98972.45;;;10.61;92.77
62952;BME280;52163;52.212;-1.002;2022-11-03T08:18:44;98960.74;;;10.63;92.67
62952;BME280;52163;52.212;-1.002;2022-11-03T08:21:09;98957.91;;;10.70;92.81
62952;BME280;52163;52.212;-1.002;2022-11-03T08:23:35;98958.13;;;10.73;92.07
62952;BME280;52163;52.212;-1.002;2022-11-03T08:26:00;98958.48;;;10.73;91.88
62952;BME280;52163;52.212;-1.002;2022-11-03T08:28:26;98971.54;;;10.78;92.08
62952;BME280;52163;52.212;-1.002;2022-11-03T08:30:52;98982.65;;;10.84;92.48
62952;BME280;52163;52.212;-1.002;2022-11-03T08:33:17;98984.74;;;10.85;92.17
62952;BME280;52163;52.212;-1.002;2022-11-03T08:35:43;98986.97;;;10.83;92.11
62952;BME280;52163;52.212;-1.002;2022-11-03T08:38:08;98980.33;;;10.82;92.12
62952;BME280;52163;52.212;-1.002;2022-11-03T08:40:33;98968.92;;;10.82;91.99
62952;BME280;52163;52.212;-1.002;2022-11-03T08:42:59;98959.40;;;10.83;92.16
62952;BME280;52163;52.212;-1.002;2022-11-03T08:45:30;98964.05;;;10.87;91.77
62952;BME280;52163;52.212;-1.002;2022-11-03T08:47:56;98967.16;;;10.90;91.91
62952;BME280;52163;52.212;-1.002;2022-11-03T08:50:22;98959.01;;;10.94;91.72
62952;BME280;52163;52.212;-1.002;2022-11-03T08:52:48;98962.11;;;10.97;91.20
62952;BME280;52163;52.212;-1.002;2022-11-03T08:55:14;98961.89;;;10.96;90.95
62952;BME280;52163;52.212;-1.002;2022-11-03T08:57:39;98962.19;;;10.96;90.72
62952;BME280;52163;52.212;-1.002;2022-11-03T09:00:06;98959.21;;;10.98;90.91
62952;BME280;52163;52.212;-1.002;2022-11-03T09:02:32;98959.36;;;11.02;90.59
62952;BME280;52163;52.212;-1.002;2022-11-03T09:04:57;98954.13;;;11.06;90.39
62952;BME280;52163;52.212;-1.002;2022-11-03T09:07:23;98953.17;;;11.11;90.28
62952;BME280;52163;52.212;-1.002;2022-11-03T09:09:48;98943.30;;;11.19;90.63
62952;BME280;52163;52.212;-1.002;2022-11-03T09:12:14;98935.72;;;11.23;90.11
62952;BME280;52163;52.212;-1.002;2022-11-03T09:14:39;98928.41;;;11.25;90.22
62952;BME280;52163;52.212;-1.002;2022-11-03T09:17:05;98925.23;;;11.31;90.44
62952;BME280;52163;52.212;-1.002;2022-11-03T09:19:31;98921.72;;;11.37;90.39
62952;BME280;52163;52.212;-1.002;2022-11-03T09:21:57;98917.77;;;11.44;90.40
62952;BME280;52163;52.212;-1.002;2022-11-03T09:24:24;98911.40;;;11.48;89.86
62952;BME280;52163;52.212;-1.002;2022-11-03T09:26:50;98905.90;;;11.52;89.79
62952;BME280;52163;52.212;-1.002;2022-11-03T09:29:15;98901.73;;;11.51;89.14
62952;BME280;52163;52.212;-1.002;2022-11-03T09:31:43;98902.84;;;11.55;89.49
62952;BME280;52163;52.212;-1.002;2022-11-03T09:34:08;98912.41;;;11.58;89.47
62952;BME280;52163;52.212;-1.002;2022-11-03T09:36:34;98915.39;;;11.61;89.33
62952;BME280;52163;52.212;-1.002;2022-11-03T09:38:59;98915.80;;;11.64;89.27
62952;BME280;52163;52.212;-1.002;2022-11-03T09:41:25;98916.89;;;11.66;89.15
62952;BME280;52163;52.212;-1.002;2022-11-03T09:43:51;98917.73;;;11.70;89.46
62952;BME280;52163;52.212;-1.002;2022-11-03T09:46:16;98921.23;;;11.72;88.98
62952;BME280;52163;52.212;-1.002;2022-11-03T09:48:43;98918.31;;;11.71;88.76
62952;BME280;52163;52.212;-1.002;2022-11-03T09:51:09;98921.80;;;11.70;88.64
62952;BME280;52163;52.212;-1.002;2022-11-03T09:53:39;98925.77;;;11.69;88.49
62952;BME280;52163;52.212;-1.002;2022-11-03T09:56:05;98929.57;;;11.66;88.19
62952;BME280;52163;52.212;-1.002;2022-11-03T09:58:32;98935.70;;;11.61;88.00
62952;BME280;52163;52.212;-1.002;2022-11-03T10:00:59;98942.59;;;11.53;88.08
62952;BME280;52163;52.212;-1.002;2022-11-03T10:03:25;98945.35;;;11.46;88.39
62952;BME280;52163;52.212;-1.002;2022-11-03T10:05:50;98938.80;;;11.44;88.75
62952;BME280;52163;52.212;-1.002;2022-11-03T10:08:25;98940.23;;;11.44;88.58
62952;BME280;52163;52.212;-1.002;2022-11-03T10:10:52;98941.06;;;11.42;88.40
62952;BME280;52163;52.212;-1.002;2022-11-03T10:13:29;98945.79;;;11.41;88.37
62952;BME280;52163;52.212;-1.002;2022-11-03T10:15:55;98949.11;;;11.43;88.70
62952;BME280;52163;52.212;-1.002;2022-11-03T10:18:22;98950.67;;;11.45;88.71
62952;BME280;52163;52.212;-1.002;2022-11-03T10:20:48;98943.46;;;11.53;89.03
62952;BME280;52163;52.212;-1.002;2022-11-03T10:23:13;98947.49;;;11.59;88.66
62952;BME280;52163;52.212;-1.002;2022-11-03T10:25:41;98947.13;;;11.66;88.39
62952;BME280;52163;52.212;-1.002;2022-11-03T10:35:55;98937.40;;;11.82;88.06
62952;BME280;52163;52.212;-1.002;2022-11-03T10:38:25;98930.53;;;11.93;88.20
62952;BME280;52163;52.212;-1.002;2022-11-03T10:41:19;98923.75;;;12.02;87.76
62952;BME280;52163;52.212;-1.002;2022-11-03T10:44:17;98928.42;;;12.09;87.39
62952;BME280;52163;52.212;-1.002;2022-11-03T10:46:56;98921.71;;;12.16;87.28
62952;BME280;52163;52.212;-1.002;2022-11-03T10:49:30;98913.70;;;12.25;86.87
62952;BME280;52163;52.212;-1.002;2022-11-03T10:52:17;98909.16;;;12.34;86.73
62952;BME280;52163;52.212;-1.002;2022-11-03T10:54:44;98905.31;;;12.43;86.73
62952;BME280;52163;52.212;-1.002;2022-11-03T10:57:09;98909.73;;;12.48;86.46
62952;BME280;52163;52.212;-1.002;2022-11-03T10:59:36;98906.55;;;12.54;86.58
62952;BME280;52163;52.212;-1.002;2022-11-03T11:02:11;98904.39;;;12.58;86.35
62952;BME280;52163;52.212;-1.002;2022-11-03T11:04:38;98898.10;;;12.61;85.91
62952;BME280;52163;52.212;-1.002;2022-11-03T11:07:22;98895.30;;;12.66;85.67
62952;BME280;52163;52.212;-1.002;2022-11-03T11:09:50;98894.83;;;12.71;85.35
62952;BME280;52163;52.212;-1.002;2022-11-03T11:12:23;98890.69;;;12.76;85.25
62952;BME280;52163;52.212;-1.002;2022-11-03T11:14:59;98888.90;;;12.82;85.10
62952;BME280;52163;52.212;-1.002;2022-11-03T11:20:18;98879.13;;;12.99;84.75
62952;BME280;52163;52.212;-1.002;2022-11-03T11:22:47;98882.01;;;13.06;83.96
62952;BME280;52163;52.212;-1.002;2022-11-03T11:25:14;98879.67;;;13.10;83.73
62952;BME280;52163;52.212;-1.002;2022-11-03T11:30:54;98871.80;;;13.25;83.15
62952;BME280;52163;52.212;-1.002;2022-11-03T11:32:59;98863.02;;;13.37;82.87
62952;BME280;52163;52.212;-1.002;2022-11-03T11:37:52;98854.70;;;13.59;82.24
62952;BME280;52163;52.212;-1.002;2022-11-03T11:48:38;98836.25;;;13.88;80.19
62952;BME280;52163;52.212;-1.002;2022-11-03T11:51:09;98836.16;;;13.82;79.93
62952;BME280;52163;52.212;-1.002;2022-11-03T11:53:39;98836.36;;;13.71;79.18
62952;BME280;52163;52.212;-1.002;2022-11-03T11:56:10;98841.71;;;13.58;78.78
62952;BME280;52163;52.212;-1.002;2022-11-03T12:01:29;98835.20;;;13.61;79.39
62952;BME280;52163;52.212;-1.002;2022-11-03T12:03:59;98836.24;;;13.69;79.27
62952;BME280;52163;52.212;-1.002;2022-11-03T12:06:35;98837.80;;;13.72;79.23
62952;BME280;52163;52.212;-1.002;2022-11-03T12:09:17;98841.98;;;13.71;78.78
62952;BME280;52163;52.212;-1.002;2022-11-03T12:11:52;98842.09;;;13.77;79.00
62952;BME280;52163;52.212;-1.002;2022-11-03T12:16:56;98838.89;;;14.02;78.44
62952;BME280;52163;52.212;-1.002;2022-11-03T12:19:35;98833.05;;;14.07;78.12
62952;BME280;52163;52.212;-1.002;2022-11-03T12:22:03;98829.46;;;14.09;77.88
62952;BME280;52163;52.212;-1.002;2022-11-03T12:26:55;98827.11;;;14.17;77.22
62952;BME280;52163;52.212;-1.002;2022-11-03T12:29:20;98824.77;;;14.15;76.85
62952;BME280;52163;52.212;-1.002;2022-11-03T12:31:46;98823.82;;;14.13;77.03
62952;BME280;52163;52.212;-1.002;2022-11-03T12:34:12;98828.08;;;14.13;76.88
62952;BME280;52163;52.212;-1.002;2022-11-03T12:36:37;98825.64;;;14.09;76.10
62952;BME280;52163;52.212;-1.002;2022-11-03T12:39:03;98821.88;;;14.05;76.04
62952;BME280;52163;52.212;-1.002;2022-11-03T12:41:28;98821.17;;;14.04;75.91
62952;BME280;52163;52.212;-1.002;2022-11-03T12:43:53;98829.07;;;14.10;75.91
62952;BME280;52163;52.212;-1.002;2022-11-03T12:46:22;98828.14;;;14.21;76.05
62952;BME280;52163;52.212;-1.002;2022-11-03T12:48:48;98821.71;;;14.33;75.93
62952;BME280;52163;52.212;-1.002;2022-11-03T12:51:24;98826.10;;;14.44;75.13
62952;BME280;52163;52.212;-1.002;2022-11-03T12:53:50;98827.12;;;14.47;74.27
62952;BME280;52163;52.212;-1.002;2022-11-03T12:56:16;98826.67;;;14.46;74.16
62952;BME280;52163;52.212;-1.002;2022-11-03T12:58:42;98824.86;;;14.43;74.06
62952;BME280;52163;52.212;-1.002;2022-11-03T13:01:07;98821.27;;;14.36;74.01
62952;BME280;52163;52.212;-1.002;2022-11-03T13:03:34;98819.58;;;14.25;74.33
62952;BME280;52163;52.212;-1.002;2022-11-03T13:06:01;98816.83;;;14.17;74.58
62952;BME280;52163;52.212;-1.002;2022-11-03T13:08:31;98812.29;;;14.09;74.75
62952;BME280;52163;52.212;-1.002;2022-11-03T13:10:57;98812.83;;;13.99;74.63
62952;BME280;52163;52.212;-1.002;2022-11-03T13:13:22;98816.95;;;13.89;75.11
62952;BME280;52163;52.212;-1.002;2022-11-03T13:15:48;98819.02;;;13.77;75.00
62952;BME280;52163;52.212;-1.002;2022-11-03T13:18:14;98824.30;;;13.63;74.78
62952;BME280;52163;52.212;-1.002;2022-11-03T13:20:39;98824.93;;;13.48;75.11
62952;BME280;52163;52.212;-1.002;2022-11-03T13:23:05;98825.06;;;13.32;75.23
62952;BME280;52163;52.212;-1.002;2022-11-03T13:25:31;98825.58;;;13.21;75.77
62952;BME280;52163;52.212;-1.002;2022-11-03T13:27:56;98827.20;;;13.14;75.95
62952;BME280;52163;52.212;-1.002;2022-11-03T13:30:23;98823.77;;;13.13;76.46
62952;BME280;52163;52.212;-1.002;2022-11-03T13:32:50;98821.93;;;13.15;76.23
62952;BME280;52163;52.212;-1.002;2022-11-03T13:35:16;98818.61;;;13.15;75.73
62952;BME280;52163;52.212;-1.002;2022-11-03T13:37:41;98821.02;;;13.14;75.71
62952;BME280;52163;52.212;-1.002;2022-11-03T13:40:09;98813.27;;;13.11;75.72
62952;BME280;52163;52.212;-1.002;2022-11-03T13:42:36;98811.92;;;13.10;75.52
62952;BME280;52163;52.212;-1.002;2022-11-03T13:45:02;98810.13;;;13.11;75.88
62952;BME280;52163;52.212;-1.002;2022-11-03T13:47:28;98807.42;;;13.11;75.84
62952;BME280;52163;52.212;-1.002;2022-11-03T13:49:53;98808.21;;;13.12;75.68
62952;BME280;52163;52.212;-1.002;2022-11-03T13:52:18;98804.81;;;13.14;75.73
62952;BME280;52163;52.212;-1.002;2022-11-03T13:54:44;98804.67;;;13.17;76.03
62952;BME280;52163;52.212;-1.002;2022-11-03T13:57:10;98806.08;;;13.17;75.72
62952;BME280;52163;52.212;-1.002;2022-11-03T13:59:35;98807.20;;;13.22;75.88
62952;BME280;52163;52.212;-1.002;2022-11-03T14:02:02;98801.89;;;13.26;75.53
62952;BME280;52163;52.212;-1.002;2022-11-03T14:04:28;98800.78;;;13.34;75.53
62952;BME280;52163;52.212;-1.002;2022-11-03T14:06:54;98803.25;;;13.41;75.40
62952;BME280;52163;52.212;-1.002;2022-11-03T14:09:19;98802.80;;;13.46;75.36
62952;BME280;52163;52.212;-1.002;2022-11-03T14:11:45;98799.11;;;13.46;75.02
62952;BME280;52163;52.212;-1.002;2022-11-03T14:14:29;98794.05;;;13.41;74.62
62952;BME280;52163;52.212;-1.002;2022-11-03T14:16:54;98790.86;;;13.35;74.66
62952;BME280;52163;52.212;-1.002;2022-11-03T14:19:20;98782.91;;;13.28;74.50